Wetterdaten: Woche 19.01.15 - 25.01.15 (KW4)
Datum Zeit Temp. A. Feuchte A. Luftdruck Regen Wind Richtung Taupunkt Windchill Windben
19.01.2015 00:00 2,6 C 84 % 1016,5 hPa 0,0 l/m 0,0 km/h N 0,1 C 2,6 C 0,0 km/h
19.01.2015 01:00 2,6 C 84 % 1016,1 hPa 0,0 l/m 0,0 km/h N 0,2 C 2,6 C 1,6 km/h
19.01.2015 02:00 2,3 C 84 % 1015,9 hPa 0,0 l/m 0,0 km/h N -0,1 C 2,3 C 0,0 km/h
19.01.2015 03:00 2,2 C 84 % 1015,3 hPa 0,0 l/m 0,2 km/h N -0,2 C 2,2 C 1,6 km/h
19.01.2015 04:00 2,1 C 85 % 1014,7 hPa 0,0 l/m 0,1 km/h N -0,2 C 2,1 C 1,6 km/h
19.01.2015 05:00 2,1 C 85 % 1014,8 hPa 0,0 l/m 0,0 km/h N -0,2 C 2,1 C 0,0 km/h
19.01.2015 06:00 2,1 C 85 % 1014,8 hPa 0,0 l/m 0,0 km/h N -0,1 C 2,1 C 0,0 km/h
19.01.2015 07:00 2,1 C 85 % 1014,5 hPa 0,0 l/m 0,0 km/h N -0,2 C 2,1 C 0,0 km/h
19.01.2015 08:00 2,1 C 85 % 1014,5 hPa 0,0 l/m 0,0 km/h N -0,2 C 2,1 C 0,0 km/h
19.01.2015 09:00 2,3 C 86 % 1014,8 hPa 0,0 l/m 0,0 km/h N 0,1 C 2,3 C 0,0 km/h
19.01.2015 10:00 2,6 C 86 % 1014,7 hPa 0,0 l/m 0,1 km/h N 0,4 C 2,6 C 2,0 km/h
19.01.2015 11:00 2,9 C 85 % 1014,5 hPa 0,0 l/m 0,3 km/h N 0,6 C 2,9 C 2,0 km/h
19.01.2015 12:00 3,1 C 85 % 1014,0 hPa 0,0 l/m 0,1 km/h N 0,8 C 3,1 C 2,0 km/h
19.01.2015 13:00 3,3 C 84 % 1013,3 hPa 0,0 l/m 0,1 km/h N 0,9 C 3,3 C 2,0 km/h
19.01.2015 14:00 3,4 C 83 % 1013,2 hPa 0,0 l/m 0,2 km/h N 0,7 C 3,4 C 1,2 km/h
19.01.2015 15:00 3,7 C 81 % 1013,0 hPa 0,0 l/m 0,1 km/h N 0,7 C 3,7 C 1,2 km/h
19.01.2015 16:00 3,3 C 79 % 1012,9 hPa 0,0 l/m 1,0 km/h N -0,1 C 3,3 C 5,2 km/h
19.01.2015 17:00 2,3 C 81 % 1013,3 hPa 0,0 l/m 0,0 km/h N -0,6 C 2,3 C 0,4 km/h
19.01.2015 18:00 2,2 C 83 % 1013,5 hPa 0,0 l/m 0,0 km/h N -0,4 C 2,2 C 0,0 km/h
19.01.2015 19:00 2,2 C 84 % 1013,6 hPa 0,0 l/m 0,0 km/h N -0,2 C 2,2 C 0,0 km/h
19.01.2015 20:00 2,2 C 84 % 1013,6 hPa 0,0 l/m 0,0 km/h N -0,2 C 2,2 C 0,0 km/h
19.01.2015 21:00 2,3 C 85 % 1013,7 hPa 0,0 l/m 0,0 km/h N 0,0 C 2,3 C 0,0 km/h
19.01.2015 22:00 2,3 C 85 % 1013,5 hPa 0,0 l/m 0,0 km/h N 0,1 C 2,3 C 0,0 km/h
19.01.2015 23:00 2,4 C 85 % 1013,2 hPa 0,0 l/m 0,0 km/h N 0,1 C 2,4 C 0,0 km/h
20.01.2015 00:00 2,5 C 86 % 1012,7 hPa 0,0 l/m 0,0 km/h N 0,3 C 2,5 C 0,0 km/h
20.01.2015 01:00 2,5 C 85 % 1012,5 hPa 0,0 l/m 0,0 km/h N 0,3 C 2,5 C 0,0 km/h
20.01.2015 02:00 2,4 C 86 % 1012,3 hPa 0,0 l/m 0,0 km/h N 0,3 C 2,4 C 0,4 km/h
20.01.2015 03:00 2,3 C 86 % 1012,0 hPa 0,0 l/m 0,5 km/h N 0,2 C 2,3 C 3,6 km/h
20.01.2015 04:00 1,9 C 86 % 1011,9 hPa 0,0 l/m 0,6 km/h N -0,2 C 1,9 C 5,6 km/h
20.01.2015 05:00 1,7 C 86 % 1011,5 hPa 0,0 l/m 0,2 km/h N -0,5 C 1,7 C 4,0 km/h
20.01.2015 06:00 1,8 C 85 % 1011,5 hPa 0,0 l/m 0,9 km/h N -0,4 C 1,8 C 4,8 km/h
20.01.2015 07:00 1,8 C 85 % 1011,5 hPa 0,0 l/m 1,1 km/h N -0,5 C 1,8 C 6,8 km/h
20.01.2015 08:00 1,9 C 85 % 1011,3 hPa 0,0 l/m 1,5 km/h N -0,5 C 1,9 C 10,8 km/h
20.01.2015 09:00 2,0 C 84 % 1011,2 hPa 0,0 l/m 1,7 km/h N -0,4 C 2,0 C 9,6 km/h
20.01.2015 10:00 2,5 C 84 % 1011,0 hPa 0,0 l/m 2,8 km/h N -0,0 C 2,5 C 11,7 km/h
20.01.2015 11:00 2,8 C 84 % 1010,6 hPa 0,0 l/m 2,7 km/h N 0,4 C 2,8 C 10,4 km/h
20.01.2015 12:00 3,2 C 86 % 1010,1 hPa 0,0 l/m 1,8 km/h N 1,0 C 3,2 C 8,1 km/h
20.01.2015 13:00 3,5 C 86 % 1009,9 hPa 0,0 l/m 0,6 km/h N 1,3 C 3,5 C 5,2 km/h
20.01.2015 14:00 3,7 C 85 % 1010,1 hPa 0,0 l/m 0,8 km/h N 1,4 C 3,7 C 5,2 km/h
20.01.2015 15:00 3,9 C 84 % 1010,3 hPa 0,0 l/m 0,0 km/h N 1,4 C 3,9 C 0,0 km/h
20.01.2015 16:00 3,8 C 84 % 1010,4 hPa 0,0 l/m 0,0 km/h N 1,4 C 3,8 C 0,0 km/h
20.01.2015 17:00 3,5 C 84 % 1010,8 hPa 0,0 l/m 0,0 km/h N 1,1 C 3,5 C 0,0 km/h
20.01.2015 18:00 3,0 C 84 % 1011,3 hPa 0,0 l/m 0,6 km/h N 0,5 C 3,0 C 4,0 km/h
20.01.2015 19:00 2,5 C 84 % 1011,8 hPa 0,0 l/m 0,3 km/h N -0,0 C 2,5 C 3,2 km/h
20.01.2015 20:00 2,2 C 83 % 1012,0 hPa 0,0 l/m 0,4 km/h N -0,5 C 2,2 C 4,4 km/h
20.01.2015 21:00 1,4 C 82 % 1012,5 hPa 0,0 l/m 0,0 km/h N -1,3 C 1,4 C 0,4 km/h
20.01.2015 22:00 0,4 C 84 % 1012,9 hPa 0,0 l/m 0,3 km/h N -2,1 C 0,4 C 1,2 km/h
20.01.2015 23:00 -0,1 C 85 % 1013,1 hPa 0,0 l/m 0,3 km/h N -2,3 C -0,1 C 2,4 km/h
21.01.2015 00:00 -0,2 C 85 % 1013,2 hPa 0,0 l/m 0,5 km/h N -2,4 C -0,2 C 3,6 km/h
21.01.2015 01:00 -0,5 C 85 % 1013,4 hPa 0,0 l/m 0,1 km/h N -2,7 C -0,5 C 1,6 km/h
21.01.2015 02:00 -0,2 C 85 % 1013,5 hPa 0,0 l/m 0,6 km/h N -2,4 C -0,2 C 4,8 km/h
21.01.2015 03:00 0,7 C 84 % 1013,3 hPa 0,0 l/m 0,7 km/h N -1,6 C 0,7 C 4,8 km/h
21.01.2015 04:00 1,1 C 83 % 1013,3 hPa 0,0 l/m 0,1 km/h N -1,4 C 1,1 C 2,4 km/h
21.01.2015 05:00 1,3 C 82 % 1013,6 hPa 0,0 l/m 0,1 km/h N -1,4 C 1,3 C 0,8 km/h
21.01.2015 06:00 1,3 C 82 % 1014,0 hPa 0,0 l/m 0,2 km/h N -1,4 C 1,3 C 2,0 km/h
21.01.2015 07:00 1,5 C 81 % 1014,4 hPa 0,0 l/m 0,2 km/h N -1,4 C 1,5 C 1,6 km/h
21.01.2015 08:00 1,7 C 81 % 1014,6 hPa 0,0 l/m 0,0 km/h N -1,2 C 1,7 C 0,4 km/h
21.01.2015 09:00 2,1 C 81 % 1014,8 hPa 0,0 l/m 0,1 km/h N -0,9 C 2,1 C 1,2 km/h
21.01.2015 10:00 2,8 C 77 % 1015,0 hPa 0,0 l/m 0,1 km/h N -0,8 C 2,8 C 1,6 km/h
21.01.2015 11:00 3,7 C 75 % 1014,9 hPa 0,0 l/m 0,4 km/h N -0,3 C 3,7 C 4,8 km/h
21.01.2015 12:00 3,8 C 76 % 1014,6 hPa 0,0 l/m 0,5 km/h N -0,1 C 3,8 C 4,4 km/h
21.01.2015 13:00 3,9 C 78 % 1014,0 hPa 0,0 l/m 0,2 km/h N 0,3 C 3,9 C 3,2 km/h
21.01.2015 14:00 4,1 C 79 % 1013,5 hPa 0,0 l/m 0,2 km/h N 0,7 C 4,1 C 3,6 km/h
21.01.2015 15:00 4,2 C 80 % 1013,4 hPa 0,0 l/m 0,4 km/h N 1,0 C 4,2 C 4,4 km/h
21.01.2015 16:00 4,3 C 81 % 1013,3 hPa 0,0 l/m 1,3 km/h N 1,4 C 4,3 C 7,6 km/h
21.01.2015 17:00 4,1 C 83 % 1013,3 hPa 0,0 l/m 1,3 km/h N 1,5 C 4,1 C 8,1 km/h
21.01.2015 18:00 4,1 C 84 % 1013,5 hPa 0,0 l/m 2,3 km/h N 1,6 C 4,1 C 8,4 km/h
21.01.2015 19:00 4,1 C 84 % 1013,8 hPa 0,0 l/m 2,4 km/h N 1,7 C 4,1 C 9,7 km/h
21.01.2015 20:00 4,0 C 85 % 1013,9 hPa 0,0 l/m 1,1 km/h N 1,7 C 4,0 C 7,2 km/h
21.01.2015 21:00 3,3 C 85 % 1013,9 hPa 0,0 l/m 0,5 km/h N 1,1 C 3,3 C 5,6 km/h
21.01.2015 22:00 2,9 C 86 % 1013,7 hPa 0,0 l/m 0,1 km/h N 0,8 C 2,9 C 2,0 km/h
21.01.2015 23:00 2,2 C 86 % 1013,7 hPa 0,0 l/m 0,0 km/h N 0,1 C 2,2 C 0,0 km/h
22.01.2015 00:00 2,7 C 85 % 1013,3 hPa 0,0 l/m 0,1 km/h N 0,4 C 2,7 C 2,0 km/h
22.01.2015 01:00 3,4 C 84 % 1013,2 hPa 0,0 l/m 0,6 km/h N 1,0 C 3,4 C 5,6 km/h
22.01.2015 02:00 3,7 C 84 % 1013,1 hPa 0,0 l/m 1,2 km/h N 1,2 C 3,7 C 7,6 km/h
22.01.2015 03:00 4,0 C 84 % 1013,0 hPa 0,0 l/m 1,7 km/h N 1,5 C 4,0 C 10,5 km/h
22.01.2015 04:00 3,8 C 84 % 1012,8 hPa 0,0 l/m 0,1 km/h N 1,3 C 3,8 C 2,8 km/h
22.01.2015 05:00 3,5 C 84 % 1012,8 hPa 0,0 l/m 0,0 km/h N 1,1 C 3,5 C 0,8 km/h
22.01.2015 06:00 3,6 C 84 % 1012,8 hPa 0,0 l/m 0,1 km/h N 1,2 C 3,6 C 0,8 km/h
22.01.2015 07:00 3,9 C 84 % 1012,8 hPa 0,0 l/m 0,5 km/h N 1,5 C 3,9 C 4,4 km/h
22.01.2015 08:00 4,5 C 83 % 1013,0 hPa 0,0 l/m 1,7 km/h N 1,9 C 4,5 C 7,6 km/h
22.01.2015 09:00 5,1 C 85 % 1013,1 hPa 0,0 l/m 4,3 km/h N 2,8 C 5,1 C 13,3 km/h
22.01.2015 10:00 5,8 C 86 % 1013,1 hPa 0,0 l/m 5,0 km/h N 3,6 C 5,8 C 16,5 km/h
22.01.2015 11:00 6,2 C 85 % 1012,9 hPa 0,0 l/m 2,8 km/h N 3,8 C 6,2 C 11,3 km/h
22.01.2015 12:00 6,8 C 84 % 1012,4 hPa 0,0 l/m 3,1 km/h N 4,2 C 6,8 C 14,1 km/h
22.01.2015 13:00 7,2 C 81 % 1011,7 hPa 0,0 l/m 7,2 km/h N 4,2 C 6,6 C 20,9 km/h
22.01.2015 14:00 7,5 C 80 % 1011,4 hPa 0,0 l/m 3,8 km/h N 4,3 C 7,5 C 16,9 km/h
22.01.2015 15:00 7,1 C 81 % 1011,4 hPa 0,0 l/m 2,6 km/h N 4,1 C 7,1 C 10,5 km/h
22.01.2015 16:00 6,6 C 83 % 1011,8 hPa 0,0 l/m 4,1 km/h N 3,9 C 6,6 C 13,3 km/h
22.01.2015 17:00 6,3 C 83 % 1012,3 hPa 0,0 l/m 1,3 km/h N 3,7 C 6,3 C 9,6 km/h
22.01.2015 18:00 6,0 C 83 % 1012,7 hPa 0,0 l/m 0,6 km/h N 3,3 C 6,0 C 5,6 km/h
22.01.2015 19:00 5,9 C 84 % 1013,0 hPa 0,0 l/m 0,9 km/h N 3,4 C 5,9 C 5,6 km/h
22.01.2015 20:00 5,9 C 85 % 1013,2 hPa 0,0 l/m 0,4 km/h N 3,5 C 5,9 C 5,2 km/h
22.01.2015 21:00 5,9 C 85 % 1013,5 hPa 0,0 l/m 0,3 km/h N 3,6 C 5,9 C 4,0 km/h
22.01.2015 22:00 5,7 C 85 % 1013,7 hPa 0,0 l/m 0,1 km/h N 3,4 C 5,7 C 1,2 km/h
22.01.2015 23:00 5,3 C 85 % 1013,9 hPa 0,0 l/m 0,0 km/h N 3,0 C 5,3 C 0,0 km/h
23.01.2015 00:00 5,1 C 85 % 1014,0 hPa 0,0 l/m 0,0 km/h N 2,8 C 5,1 C 0,0 km/h
23.01.2015 01:00 4,9 C 85 % 1014,1 hPa 0,0 l/m 0,0 km/h N 2,6 C 4,9 C 0,0 km/h
23.01.2015 02:00 4,9 C 86 % 1014,3 hPa 0,0 l/m 0,1 km/h N 2,8 C 4,9 C 0,8 km/h
23.01.2015 03:00 5,1 C 86 % 1014,3 hPa 0,0 l/m 2,1 km/h N 2,9 C 5,1 C 7,6 km/h
23.01.2015 04:00 4,7 C 86 % 1014,6 hPa 0,0 l/m 2,0 km/h N 2,5 C 4,7 C 8,9 km/h
23.01.2015 05:00 4,3 C 86 % 1014,8 hPa 0,0 l/m 4,2 km/h N 2,2 C 4,3 C 15,3 km/h
23.01.2015 06:00 4,2 C 85 % 1014,9 hPa 0,0 l/m 6,9 km/h N 1,9 C 3,6 C 16,9 km/h
23.01.2015 07:00 4,2 C 84 % 1015,2 hPa 0,0 l/m 5,8 km/h N 1,7 C 4,2 C 17,3 km/h
23.01.2015 08:00 4,0 C 83 % 1015,5 hPa 0,0 l/m 3,8 km/h N 1,3 C 4,0 C 15,3 km/h
23.01.2015 09:00 4,1 C 81 % 1016,0 hPa 0,0 l/m 4,3 km/h N 1,1 C 4,1 C 15,7 km/h
23.01.2015 10:00 4,2 C 79 % 1015,9 hPa 0,0 l/m 8,4 km/h N 1,0 C 2,3 C 27,0 km/h
23.01.2015 11:00 4,2 C 79 % 1016,1 hPa 0,0 l/m 12,2 km/h N 0,8 C -0,3 C 28,2 km/h
23.01.2015 12:00 4,2 C 80 % 1015,9 hPa 0,0 l/m 11,6 km/h N 1,0 C 0,2 C 28,6 km/h
23.01.2015 13:00 4,1 C 81 % 1015,5 hPa 0,0 l/m 13,1 km/h N 1,1 C -0,9 C 29,0 km/h
23.01.2015 14:00 4,2 C 81 % 1016,0 hPa 0,0 l/m 11,9 km/h N 1,2 C -0,1 C 27,3 km/h
23.01.2015 15:00 3,9 C 82 % 1016,3 hPa 0,0 l/m 12,2 km/h N 1,0 C -0,6 C 26,5 km/h
23.01.2015 16:00 3,8 C 82 % 1016,7 hPa 0,0 l/m 13,5 km/h N 1,0 C -1,4 C 28,2 km/h
23.01.2015 17:00 3,9 C 82 % 1017,0 hPa 0,0 l/m 14,5 km/h N 1,0 C -1,9 C 31,4 km/h
23.01.2015 18:00 3,8 C 83 % 1017,3 hPa 0,0 l/m 14,8 km/h N 1,1 C -2,2 C 32,6 km/h
23.01.2015 19:00 3,9 C 83 % 1018,0 hPa 0,0 l/m 14,8 km/h N 1,2 C -2,2 C 31,4 km/h
23.01.2015 20:00 3,6 C 83 % 1018,4 hPa 0,0 l/m 14,2 km/h N 1,0 C -2,2 C 31,0 km/h
23.01.2015 21:00 3,6 C 84 % 1018,7 hPa 0,0 l/m 9,9 km/h N 1,1 C 0,5 C 23,7 km/h
23.01.2015 22:00 3,6 C 84 % 1018,8 hPa 0,0 l/m 8,9 km/h N 1,2 C 1,5 C 24,9 km/h
23.01.2015 23:00 3,7 C 83 % 1019,0 hPa 0,0 l/m 10,2 km/h N 1,0 C 0,4 C 25,3 km/h
24.01.2015 00:00 3,4 C 82 % 1018,8 hPa 0,0 l/m 9,0 km/h N 0,6 C 1,1 C 23,3 km/h
24.01.2015 01:00 3,3 C 82 % 1018,8 hPa 0,0 l/m 8,6 km/h N 0,5 C 1,3 C 23,7 km/h
24.01.2015 02:00 3,1 C 82 % 1018,4 hPa 0,0 l/m 10,1 km/h N 0,4 C -0,1 C 23,7 km/h
24.01.2015 03:00 2,9 C 82 % 1018,1 hPa 0,0 l/m 11,6 km/h N 0,1 C -1,3 C 29,4 km/h
24.01.2015 04:00 2,8 C 82 % 1017,6 hPa 0,0 l/m 11,4 km/h N -0,0 C -1,3 C 26,1 km/h
24.01.2015 05:00 2,6 C 82 % 1017,3 hPa 0,0 l/m 13,2 km/h N -0,2 C -2,7 C 33,0 km/h
24.01.2015 06:00 2,4 C 81 % 1017,4 hPa 0,0 l/m 11,0 km/h N -0,5 C -1,5 C 25,7 km/h
24.01.2015 07:00 2,3 C 79 % 1017,5 hPa 0,0 l/m 12,6 km/h N -0,9 C -2,7 C 30,6 km/h
24.01.2015 08:00 2,1 C 77 % 1017,5 hPa 0,0 l/m 11,7 km/h N -1,5 C -2,3 C 29,4 km/h
24.01.2015 09:00 2,2 C 78 % 1017,0 hPa 0,0 l/m 14,6 km/h N -1,2 C -4,1 C 36,2 km/h
24.01.2015 10:00 2,5 C 79 % 1016,5 hPa 0,0 l/m 14,9 km/h N -0,8 C -3,8 C 33,0 km/h
24.01.2015 11:00 2,7 C 78 % 1015,7 hPa 0,0 l/m 14,5 km/h N -0,8 C -3,4 C 33,4 km/h
24.01.2015 12:00 2,8 C 77 % 1015,1 hPa 0,0 l/m 15,9 km/h N -0,9 C -4,0 C 35,4 km/h
24.01.2015 13:00 2,8 C 77 % 1014,5 hPa 0,0 l/m 14,0 km/h N -0,8 C -3,0 C 31,0 km/h
24.01.2015 14:00 2,9 C 78 % 1014,2 hPa 0,0 l/m 16,0 km/h N -0,6 C -3,9 C 35,8 km/h
24.01.2015 15:00 2,8 C 80 % 1014,2 hPa 0,0 l/m 10,8 km/h N -0,3 C -0,9 C 29,4 km/h
24.01.2015 16:00 2,7 C 81 % 1014,3 hPa 0,0 l/m 9,6 km/h N -0,3 C -0,2 C 23,7 km/h
24.01.2015 17:00 2,3 C 83 % 1014,8 hPa 0,3 l/m 10,0 km/h N -0,3 C -0,9 C 26,9 km/h
24.01.2015 18:00 1,5 C 85 % 1015,2 hPa 0,5 l/m 9,9 km/h N -0,7 C -1,7 C 25,7 km/h
24.01.2015 19:00 1,3 C 86 % 1015,6 hPa 0,5 l/m 8,9 km/h N -0,8 C -1,1 C 25,7 km/h
24.01.2015 20:00 1,1 C 86 % 1015,7 hPa 0,5 l/m 11,9 km/h N -1,0 C -3,7 C 29,4 km/h
24.01.2015 21:00 1,0 C 86 % 1016,0 hPa 0,5 l/m 14,4 km/h N -1,1 C -5,4 C 35,0 km/h
24.01.2015 22:00 0,8 C 86 % 1016,1 hPa 0,0 l/m 13,7 km/h N -1,2 C -5,2 C 33,4 km/h
24.01.2015 23:00 0,7 C 86 % 1016,5 hPa 0,3 l/m 16,0 km/h N -1,5 C -6,7 C 36,6 km/h
25.01.2015 00:00 0,2 C 85 % 1017,1 hPa 0,0 l/m 14,6 km/h N -2,1 C -6,4 C 31,8 km/h
25.01.2015 01:00 -0,2 C 84 % 1017,7 hPa 0,0 l/m 14,2 km/h N -2,6 C -6,7 C 35,8 km/h
25.01.2015 02:00 -0,3 C 83 % 1018,0 hPa 0,0 l/m 12,1 km/h N -2,9 C -5,4 C 31,8 km/h
25.01.2015 03:00 -0,4 C 83 % 1018,1 hPa 0,0 l/m 16,6 km/h N -2,9 C -8,3 C 35,4 km/h
25.01.2015 04:00 -0,4 C 83 % 1018,5 hPa 0,0 l/m 16,0 km/h N -2,9 C -7,9 C 36,6 km/h
25.01.2015 05:00 -0,4 C 83 % 1019,2 hPa 0,0 l/m 13,7 km/h N -2,9 C -6,6 C 33,4 km/h
25.01.2015 06:00 -0,5 C 83 % 1019,5 hPa 0,0 l/m 12,9 km/h N -3,0 C -6,1 C 31,8 km/h
25.01.2015 07:00 -0,3 C 83 % 1019,9 hPa 0,0 l/m 15,1 km/h N -2,8 C -7,3 C 34,6 km/h
25.01.2015 08:00 -0,1 C 83 % 1020,5 hPa 0,0 l/m 13,1 km/h N -2,6 C -5,9 C 31,4 km/h
25.01.2015 09:00 0,1 C 83 % 1021,2 hPa 0,0 l/m 10,4 km/h N -2,4 C -3,7 C 24,9 km/h
25.01.2015 10:00 0,3 C 83 % 1021,8 hPa 0,0 l/m 7,7 km/h N -2,2 C -1,0 C 20,1 km/h
25.01.2015 11:00 0,6 C 83 % 1021,8 hPa 0,8 l/m 5,9 km/h N -2,1 C 0,6 C 17,7 km/h
25.01.2015 12:00 1,0 C 82 % 1021,8 hPa 1,0 l/m 9,8 km/h N -1,7 C -2,1 C 25,7 km/h
25.01.2015 13:00 1,2 C 83 % 1021,8 hPa 0,5 l/m 9,1 km/h N -1,4 C -1,3 C 24,5 km/h
25.01.2015 14:00 1,3 C 83 % 1022,0 hPa 0,3 l/m 8,2 km/h N -1,3 C -0,4 C 22,5 km/h
25.01.2015 15:00 1,3 C 85 % 1022,5 hPa 0,0 l/m 9,7 km/h N -0,9 C -1,7 C 28,2 km/h
25.01.2015 16:00 2,0 C 81 % 1023,0 hPa 0,0 l/m 12,1 km/h N -1,0 C -2,8 C 30,6 km/h
25.01.2015 17:00 2,2 C 78 % 1023,5 hPa 0,0 l/m 11,3 km/h N -1,4 C -2,0 C 32,2 km/h
25.01.2015 18:00 2,2 C 76 % 1024,2 hPa 0,0 l/m 8,9 km/h N -1,6 C -0,1 C 26,5 km/h
25.01.2015 19:00 2,2 C 75 % 1024,6 hPa 0,0 l/m 8,9 km/h N -1,9 C -0,1 C 22,5 km/h
25.01.2015 20:00 2,2 C 79 % 1024,8 hPa 0,0 l/m 8,9 km/h N -1,2 C -0,1 C 22,5 km/h
25.01.2015 21:00 2,0 C 81 % 1025,1 hPa 0,0 l/m 7,2 km/h N -0,9 C 1,3 C 20,9 km/h
25.01.2015 22:00 1,8 C 82 % 1025,5 hPa 0,0 l/m 7,2 km/h N -0,9 C 1,0 C 20,1 km/h
25.01.2015 23:00 1,8 C 82 % 1025,6 hPa 0,0 l/m 8,0 km/h N -1,0 C 0,3 C 21,7 km/h
Min-Datum _ 21.01.15 21.01.15 20.01.15 - 19.01.15 - 25.01.15 25.01.15 19.01.15
_ Min-Zeit 01:45 11:30 13:30 - 00:00 - 05:45 03:45 00:00
Minimum _ -0,7 C 74 % 1009,9 hPa - 0,0 km/h - -3,1 C -10,3 C 0,0 km/h
Max-Datum _ 22.01.15 19.01.15 25.01.15 25.01.15 25.01.15 - 22.01.15 22.01.15 24.01.15
_ Max-Zeit 14:00 09:15 23:00 12:00 03:45 - 14:00 14:00 09:45
Maximum _ 7,8 C 86 % 1025,6 hPa 1,0 l/m 20,4 km/h
N
- 4,6 C 7,8 C 43,5 km/h
N
Durchschnitt _ 2,9 C 83 % 1015,2 hPa #5,2 l/m 4,9 km/h N 0,2 C 1,3 C 13,6 km/h